sensor_id;sensor_type;location;lat;lon;timestamp;pressure;altitude;pressure_sealevel;temperature;humidity
49451;BME280;35336;48.400;10.886;2023-02-13T00:00:18;98157.69;;;0.92;98.73
49451;BME280;35336;48.400;10.886;2023-02-13T00:00:34;98153.94;;;0.82;99.02
49451;BME280;35336;48.400;10.886;2023-02-13T00:00:49;98156.19;;;0.88;99.15
49451;BME280;35336;48.400;10.886;2023-02-13T00:01:05;98146.06;;;0.82;99.29
49451;BME280;35336;48.400;10.886;2023-02-13T00:01:20;98144.25;;;0.83;99.41
49451;BME280;35336;48.400;10.886;2023-02-13T00:01:36;98143.44;;;0.82;99.34
49451;BME280;35336;48.400;10.886;2023-02-13T00:01:52;98163.91;;;0.91;99.33
49451;BME280;35336;48.400;10.886;2023-02-13T00:02:07;98121.53;;;0.67;99.55
49451;BME280;35336;48.400;10.886;2023-02-13T00:02:23;98158.66;;;0.91;99.25
49451;BME280;35336;48.400;10.886;2023-02-13T00:02:38;98167.25;;;0.93;99.32
49451;BME280;35336;48.400;10.886;2023-02-13T00:02:53;98162.00;;;0.93;99.09
49451;BME280;35336;48.400;10.886;2023-02-13T00:03:09;98157.63;;;0.94;99.31
49451;BME280;35336;48.400;10.886;2023-02-13T00:03:24;98124.81;;;0.71;99.31
49451;BME280;35336;48.400;10.886;2023-02-13T00:03:39;98149.53;;;0.97;99.49
49451;BME280;35336;48.400;10.886;2023-02-13T00:03:55;98159.31;;;0.95;99.19
49451;BME280;35336;48.400;10.886;2023-02-13T00:04:10;98163.53;;;0.98;99.00
49451;BME280;35336;48.400;10.886;2023-02-13T00:04:25;98158.44;;;0.94;98.92
49451;BME280;35336;48.400;10.886;2023-02-13T00:04:40;98141.56;;;0.84;98.89
49451;BME280;35336;48.400;10.886;2023-02-13T00:04:56;98165.41;;;0.95;99.08
49451;BME280;35336;48.400;10.886;2023-02-13T00:05:11;98144.00;;;0.87;99.02
49451;BME280;35336;48.400;10.886;2023-02-13T00:05:26;98156.75;;;0.93;98.97
49451;BME280;35336;48.400;10.886;2023-02-13T00:05:42;98142.41;;;0.85;98.95
49451;BME280;35336;48.400;10.886;2023-02-13T00:05:57;98116.94;;;0.71;98.74
49451;BME280;35336;48.400;10.886;2023-02-13T00:06:13;98161.94;;;0.95;99.11
49451;BME280;35336;48.400;10.886;2023-02-13T00:06:28;98157.69;;;0.92;98.82
49451;BME280;35336;48.400;10.886;2023-02-13T00:06:43;98158.56;;;0.93;98.98
49451;BME280;35336;48.400;10.886;2023-02-13T00:06:59;98162.00;;;0.93;99.12
49451;BME280;35336;48.400;10.886;2023-02-13T00:07:14;98158.66;;;0.91;98.94
49451;BME280;35336;48.400;10.886;2023-02-13T00:07:30;98158.72;;;0.90;98.92
49451;BME280;35336;48.400;10.886;2023-02-13T00:07:45;98159.66;;;0.89;98.85
49451;BME280;35336;48.400;10.886;2023-02-13T00:08:00;98146.06;;;0.82;98.92
49451;BME280;35336;48.400;10.886;2023-02-13T00:08:16;98156.09;;;0.90;99.33
49451;BME280;35336;48.400;10.886;2023-02-13T00:08:31;98154.41;;;0.89;99.45
49451;BME280;35336;48.400;10.886;2023-02-13T00:08:47;98157.03;;;0.89;99.04
49451;BME280;35336;48.400;10.886;2023-02-13T00:09:02;98159.66;;;0.89;99.10
49451;BME280;35336;48.400;10.886;2023-02-13T00:09:17;98129.13;;;0.72;99.10
49451;BME280;35336;48.400;10.886;2023-02-13T00:09:33;98153.56;;;0.88;99.20
49451;BME280;35336;48.400;10.886;2023-02-13T00:09:48;98164.06;;;0.88;99.27
49451;BME280;35336;48.400;10.886;2023-02-13T00:10:04;98139.28;;;0.78;99.12
49451;BME280;35336;48.400;10.886;2023-02-13T00:10:19;98155.53;;;0.85;99.14
49451;BME280;35336;48.400;10.886;2023-02-13T00:10:35;98158.81;;;0.88;99.41
49451;BME280;35336;48.400;10.886;2023-02-13T00:10:51;98144.34;;;0.81;99.37
49451;BME280;35336;48.400;10.886;2023-02-13T00:11:06;98156.28;;;0.87;99.51
49451;BME280;35336;48.400;10.886;2023-02-13T00:11:21;98121.63;;;0.66;99.17
49451;BME280;35336;48.400;10.886;2023-02-13T00:11:37;98141.06;;;0.77;99.10
49451;BME280;35336;48.400;10.886;2023-02-13T00:11:52;98150.28;;;0.85;99.12
49451;BME280;35336;48.400;10.886;2023-02-13T00:12:08;98139.47;;;0.75;99.20
49451;BME280;35336;48.400;10.886;2023-02-13T00:12:23;98164.25;;;0.85;99.08
49451;BME280;35336;48.400;10.886;2023-02-13T00:12:39;98158.97;;;0.85;98.92
49451;BME280;35336;48.400;10.886;2023-02-13T00:12:54;98152.25;;;0.81;99.19
49451;BME280;35336;48.400;10.886;2023-02-13T00:13:10;98158.97;;;0.85;98.92
49451;BME280;35336;48.400;10.886;2023-02-13T00:13:25;98148.19;;;0.75;98.81
49451;BME280;35336;48.400;10.886;2023-02-13T00:13:40;98136.44;;;0.67;98.92
49451;BME280;35336;48.400;10.886;2023-02-13T00:13:57;98135.69;;;0.65;99.02
49451;BME280;35336;48.400;10.886;2023-02-13T00:14:12;98166.50;;;0.77;98.67
49451;BME280;35336;48.400;10.886;2023-02-13T00:14:28;98158.78;;;0.74;98.82
49451;BME280;35336;48.400;10.886;2023-02-13T00:14:43;98143.50;;;0.66;99.09
49451;BME280;35336;48.400;10.886;2023-02-13T00:14:58;98155.31;;;0.73;99.09
49451;BME280;35336;48.400;10.886;2023-02-13T00:15:14;98156.06;;;0.75;99.42
49451;BME280;35336;48.400;10.886;2023-02-13T00:15:29;98151.00;;;0.72;99.36
49451;BME280;35336;48.400;10.886;2023-02-13T00:15:44;98156.81;;;0.77;99.27
49451;BME280;35336;48.400;10.886;2023-02-13T00:16:02;98140.56;;;0.71;99.32
49451;BME280;35336;48.400;10.886;2023-02-13T00:16:18;98146.94;;;0.67;99.56
49451;BME280;35336;48.400;10.886;2023-02-13T00:16:33;98159.56;;;0.76;99.67
49451;BME280;35336;48.400;10.886;2023-02-13T00:16:48;98163.94;;;0.75;99.57
49451;BME280;35336;48.400;10.886;2023-02-13T00:17:04;98153.69;;;0.71;99.59
49451;BME280;35336;48.400;10.886;2023-02-13T00:17:20;98146.03;;;0.68;99.31
49451;BME280;35336;48.400;10.886;2023-02-13T00:17:35;98127.34;;;0.58;99.76
49451;BME280;35336;48.400;10.886;2023-02-13T00:17:51;98163.94;;;0.75;99.38
49451;BME280;35336;48.400;10.886;2023-02-13T00:18:06;98151.06;;;0.71;99.49
49451;BME280;35336;48.400;10.886;2023-02-13T00:18:22;98163.88;;;0.77;99.74
49451;BME280;35336;48.400;10.886;2023-02-13T00:18:37;98162.06;;;0.77;99.79
49451;BME280;35336;48.400;10.886;2023-02-13T00:18:53;98155.13;;;0.76;99.60
49451;BME280;35336;48.400;10.886;2023-02-13T00:19:08;98156.81;;;0.77;99.57
49451;BME280;35336;48.400;10.886;2023-02-13T00:19:23;98154.47;;;0.73;99.50
49451;BME280;35336;48.400;10.886;2023-02-13T00:19:39;98115.50;;;0.51;99.82
49451;BME280;35336;48.400;10.886;2023-02-13T00:19:54;98158.63;;;0.77;99.63
49451;BME280;35336;48.400;10.886;2023-02-13T00:20:10;98159.56;;;0.76;99.45
49451;BME280;35336;48.400;10.886;2023-02-13T00:20:25;98160.22;;;0.79;99.93
49451;BME280;35336;48.400;10.886;2023-02-13T00:20:41;98126.31;;;0.60;99.67
49451;BME280;35336;48.400;10.886;2023-02-13T00:21:08;98135.69;;;0.65;99.82
49451;BME280;35336;48.400;10.886;2023-02-13T00:21:24;98148.19;;;0.75;99.61
49451;BME280;35336;48.400;10.886;2023-02-13T00:21:39;98152.34;;;0.79;99.41
49451;BME280;35336;48.400;10.886;2023-02-13T00:21:55;98149.78;;;0.78;99.68
49451;BME280;35336;48.400;10.886;2023-02-13T00:22:10;98124.41;;;0.62;99.52
49451;BME280;35336;48.400;10.886;2023-02-13T00:22:25;98138.91;;;0.70;99.39
49451;BME280;35336;48.400;10.886;2023-02-13T00:22:41;98161.16;;;0.78;99.41
49451;BME280;35336;48.400;10.886;2023-02-13T00:22:57;98154.09;;;0.79;99.42
49451;BME280;35336;48.400;10.886;2023-02-13T00:23:13;98162.75;;;0.81;99.15
49451;BME280;35336;48.400;10.886;2023-02-13T00:23:29;98157.50;;;0.81;99.07
49451;BME280;35336;48.400;10.886;2023-02-13T00:23:45;98140.66;;;0.69;99.39
49451;BME280;35336;48.400;10.886;2023-02-13T00:24:00;98149.22;;;0.73;99.21
49451;BME280;35336;48.400;10.886;2023-02-13T00:24:16;98141.59;;;0.68;99.09
49451;BME280;35336;48.400;10.886;2023-02-13T00:24:31;98147.63;;;0.70;98.77
49451;BME280;35336;48.400;10.886;2023-02-13T00:24:46;98154.28;;;0.76;98.73
49451;BME280;35336;48.400;10.886;2023-02-13T00:25:06;98146.69;;;0.71;98.94
49451;BME280;35336;48.400;10.886;2023-02-13T00:25:21;98134.09;;;0.62;99.16
49451;BME280;35336;48.400;10.886;2023-02-13T00:25:37;98157.84;;;0.75;99.19
49451;BME280;35336;48.400;10.886;2023-02-13T00:25:52;98126.56;;;0.56;98.75
49451;BME280;35336;48.400;10.886;2023-02-13T00:26:10;98157.84;;;0.75;99.13
49451;BME280;35336;48.400;10.886;2023-02-13T00:26:26;98135.88;;;0.61;99.01
49451;BME280;35336;48.400;10.886;2023-02-13T00:26:41;98155.41;;;0.72;98.90
49451;BME280;35336;48.400;10.886;2023-02-13T00:26:57;98154.56;;;0.71;98.85
49451;BME280;35336;48.400;10.886;2023-02-13T00:27:12;98150.25;;;0.70;99.08
49451;BME280;35336;48.400;10.886;2023-02-13T00:27:27;98152.47;;;0.62;98.87
49451;BME280;35336;48.400;10.886;2023-02-13T00:27:43;98159.91;;;0.70;99.32
49451;BME280;35336;48.400;10.886;2023-02-13T00:27:58;98165.16;;;0.70;99.29
49451;BME280;35336;48.400;10.886;2023-02-13T00:28:13;98125.91;;;0.52;99.08
49451;BME280;35336;48.400;10.886;2023-02-13T00:28:29;98104.09;;;0.36;99.33
49451;BME280;35336;48.400;10.886;2023-02-13T00:28:44;98131.72;;;0.57;99.15
49451;BME280;35336;48.400;10.886;2023-02-13T00:29:00;98164.31;;;0.69;99.14
49451;BME280;35336;48.400;10.886;2023-02-13T00:29:15;98156.31;;;0.71;99.45
49451;BME280;35336;48.400;10.886;2023-02-13T00:29:30;98151.84;;;0.73;99.44
49451;BME280;35336;48.400;10.886;2023-02-13T00:29:46;98157.19;;;0.71;99.26
49451;BME280;35336;48.400;10.886;2023-02-13T00:30:03;98162.34;;;0.73;99.26
49451;BME280;35336;48.400;10.886;2023-02-13T00:30:19;98119.34;;;0.45;99.11
49451;BME280;35336;48.400;10.886;2023-02-13T00:30:34;98157.28;;;0.70;99.62
49451;BME280;35336;48.400;10.886;2023-02-13T00:30:50;98143.66;;;0.63;99.40
49451;BME280;35336;48.400;10.886;2023-02-13T00:31:11;98147.22;;;0.62;99.02
49451;BME280;35336;48.400;10.886;2023-02-13T00:31:26;98160.75;;;0.70;99.45
49451;BME280;35336;48.400;10.886;2023-02-13T00:31:42;98153.13;;;0.66;99.30
49451;BME280;35336;48.400;10.886;2023-02-13T00:31:57;98151.28;;;0.68;99.45
49451;BME280;35336;48.400;10.886;2023-02-13T00:32:13;98144.59;;;0.62;99.21
49451;BME280;35336;48.400;10.886;2023-02-13T00:32:28;98166.94;;;0.69;99.00
49451;BME280;35336;48.400;10.886;2023-02-13T00:32:44;98153.59;;;0.58;99.34
49451;BME280;35336;48.400;10.886;2023-02-13T00:32:59;98164.31;;;0.69;98.98
49451;BME280;35336;48.400;10.886;2023-02-13T00:33:14;98164.31;;;0.69;99.13
49451;BME280;35336;48.400;10.886;2023-02-13T00:33:30;98166.81;;;0.71;99.22
49451;BME280;35336;48.400;10.886;2023-02-13T00:33:46;98142.78;;;0.62;99.28
49451;BME280;35336;48.400;10.886;2023-02-13T00:34:01;98170.31;;;0.71;99.58
49451;BME280;35336;48.400;10.886;2023-02-13T00:34:16;98173.72;;;0.73;99.32
49451;BME280;35336;48.400;10.886;2023-02-13T00:34:32;98164.31;;;0.69;99.28
49451;BME280;35336;48.400;10.886;2023-02-13T00:34:47;98134.44;;;0.56;99.48
49451;BME280;35336;48.400;10.886;2023-02-13T00:35:03;98159.72;;;0.73;99.33
49451;BME280;35336;48.400;10.886;2023-02-13T00:35:18;98165.72;;;0.75;99.38
49451;BME280;35336;48.400;10.886;2023-02-13T00:35:33;98139.81;;;0.54;99.52
49451;BME280;35336;48.400;10.886;2023-02-13T00:35:48;98156.81;;;0.77;99.51
49451;BME280;35336;48.400;10.886;2023-02-13T00:36:06;98130.44;;;0.65;99.25
49451;BME280;35336;48.400;10.886;2023-02-13T00:36:23;98143.50;;;0.66;99.28
49451;BME280;35336;48.400;10.886;2023-02-13T00:36:38;98160.28;;;0.78;99.05
49451;BME280;35336;48.400;10.886;2023-02-13T00:36:54;98148.66;;;0.68;99.06
49451;BME280;35336;48.400;10.886;2023-02-13T00:37:09;98142.78;;;0.62;99.12
49451;BME280;35336;48.400;10.886;2023-02-13T00:37:25;98140.94;;;0.65;99.01
49451;BME280;35336;48.400;10.886;2023-02-13T00:37:40;98161.31;;;0.75;99.10
49451;BME280;35336;48.400;10.886;2023-02-13T00:37:56;98165.63;;;0.76;98.98
49451;BME280;35336;48.400;10.886;2023-02-13T00:38:11;98164.81;;;0.76;99.25
49451;BME280;35336;48.400;10.886;2023-02-13T00:38:28;98161.25;;;0.77;99.19
49451;BME280;35336;48.400;10.886;2023-02-13T00:38:45;98145.25;;;0.66;99.12
49451;BME280;35336;48.400;10.886;2023-02-13T00:39:00;98153.53;;;0.74;98.97
49451;BME280;35336;48.400;10.886;2023-02-13T00:39:16;98145.09;;;0.69;99.19
49451;BME280;35336;48.400;10.886;2023-02-13T00:39:31;98156.94;;;0.76;99.14
49451;BME280;35336;48.400;10.886;2023-02-13T00:39:46;98128.16;;;0.58;99.22
49451;BME280;35336;48.400;10.886;2023-02-13T00:40:02;98157.84;;;0.75;98.96
49451;BME280;35336;48.400;10.886;2023-02-13T00:40:17;98165.63;;;0.76;98.93
49451;BME280;35336;48.400;10.886;2023-02-13T00:40:33;98145.34;;;0.64;98.98
49451;BME280;35336;48.400;10.886;2023-02-13T00:40:48;98157.84;;;0.75;98.61
49451;BME280;35336;48.400;10.886;2023-02-13T00:41:04;98142.06;;;0.60;98.67
49451;BME280;35336;48.400;10.886;2023-02-13T00:41:20;98162.44;;;0.71;98.74
49451;BME280;35336;48.400;10.886;2023-02-13T00:41:36;98161.41;;;0.74;98.81
49451;BME280;35336;48.400;10.886;2023-02-13T00:41:51;98151.84;;;0.73;99.05
49451;BME280;35336;48.400;10.886;2023-02-13T00:42:07;98154.66;;;0.70;98.76
49451;BME280;35336;48.400;10.886;2023-02-13T00:42:22;98120.81;;;0.49;99.09
49451;BME280;35336;48.400;10.886;2023-02-13T00:42:37;98124.31;;;0.50;98.76
49451;BME280;35336;48.400;10.886;2023-02-13T00:42:52;98161.41;;;0.74;98.85
49451;BME280;35336;48.400;10.886;2023-02-13T00:43:08;98167.50;;;0.74;98.87
49451;BME280;35336;48.400;10.886;2023-02-13T00:43:23;98162.25;;;0.74;98.95
49451;BME280;35336;48.400;10.886;2023-02-13T00:43:39;98157.94;;;0.73;98.88
49451;BME280;35336;48.400;10.886;2023-02-13T00:43:54;98154.66;;;0.70;98.77
49451;BME280;35336;48.400;10.886;2023-02-13T00:44:10;98148.81;;;0.65;99.11
49451;BME280;35336;48.400;10.886;2023-02-13T00:44:25;98116.72;;;0.45;99.14
49451;BME280;35336;48.400;10.886;2023-02-13T00:44:41;98158.94;;;0.71;98.88
49451;BME280;35336;48.400;10.886;2023-02-13T00:44:56;98142.72;;;0.64;99.24
49451;BME280;35336;48.400;10.886;2023-02-13T00:45:11;98134.34;;;0.57;98.89
49451;BME280;35336;48.400;10.886;2023-02-13T00:45:27;98166.50;;;0.77;98.96
49451;BME280;35336;48.400;10.886;2023-02-13T00:45:42;98160.28;;;0.78;99.19
49451;BME280;35336;48.400;10.886;2023-02-13T00:45:58;98148.53;;;0.69;98.93
49451;BME280;35336;48.400;10.886;2023-02-13T00:46:15;98158.78;;;0.74;98.92
49451;BME280;35336;48.400;10.886;2023-02-13T00:46:31;98162.84;;;0.79;99.00
49451;BME280;35336;48.400;10.886;2023-02-13T00:46:46;98160.28;;;0.78;99.00
49451;BME280;35336;48.400;10.886;2023-02-13T00:47:01;98129.97;;;0.58;98.61
49451;BME280;35336;48.400;10.886;2023-02-13T00:47:17;98118.19;;;0.49;98.62
49451;BME280;35336;48.400;10.886;2023-02-13T00:47:32;98171.91;;;0.74;98.74
49451;BME280;35336;48.400;10.886;2023-02-13T00:47:48;98162.69;;;0.67;98.63
49451;BME280;35336;48.400;10.886;2023-02-13T00:48:03;98144.03;;;0.57;98.49
49451;BME280;35336;48.400;10.886;2023-02-13T00:48:19;98150.97;;;0.58;98.45
49451;BME280;35336;48.400;10.886;2023-02-13T00:48:35;98169.75;;;0.66;98.29
49451;BME280;35336;48.400;10.886;2023-02-13T00:48:51;98154.59;;;0.55;98.41
49451;BME280;35336;48.400;10.886;2023-02-13T00:49:06;98165.50;;;0.63;98.36
49451;BME280;35336;48.400;10.886;2023-02-13T00:49:21;98169.91;;;0.63;98.31
49451;BME280;35336;48.400;10.886;2023-02-13T00:49:37;98164.00;;;0.59;98.77
49451;BME280;35336;48.400;10.886;2023-02-13T00:49:52;98167.19;;;0.65;98.43
49451;BME280;35336;48.400;10.886;2023-02-13T00:50:08;98148.66;;;0.52;98.42
49451;BME280;35336;48.400;10.886;2023-02-13T00:50:23;98148.88;;;0.49;98.66
49451;BME280;35336;48.400;10.886;2023-02-13T00:50:38;98160.19;;;0.49;98.46
49451;BME280;35336;48.400;10.886;2023-02-13T00:50:54;98143.97;;;0.42;98.66
49451;BME280;35336;48.400;10.886;2023-02-13T00:51:10;98148.19;;;0.45;98.64
49451;BME280;35336;48.400;10.886;2023-02-13T00:51:25;98161.72;;;0.53;99.06
49451;BME280;35336;48.400;10.886;2023-02-13T00:51:40;98142.19;;;0.43;98.97
49451;BME280;35336;48.400;10.886;2023-02-13T00:51:56;98166.78;;;0.56;98.81
49451;BME280;35336;48.400;10.886;2023-02-13T00:52:11;98150.56;;;0.50;98.90
49451;BME280;35336;48.400;10.886;2023-02-13T00:52:27;98117.41;;;0.33;98.82
49451;BME280;35336;48.400;10.886;2023-02-13T00:52:42;98150.47;;;0.51;99.24
49451;BME280;35336;48.400;10.886;2023-02-13T00:52:57;98161.47;;;0.58;99.20
49451;BME280;35336;48.400;10.886;2023-02-13T00:53:13;98168.31;;;0.60;99.49
49451;BME280;35336;48.400;10.886;2023-02-13T00:53:28;98165.59;;;0.62;99.28
49451;BME280;35336;48.400;10.886;2023-02-13T00:53:44;98158.75;;;0.59;99.06
49451;BME280;35336;48.400;10.886;2023-02-13T00:53:59;98154.53;;;0.57;99.02
49451;BME280;35336;48.400;10.886;2023-02-13T00:54:15;98143.41;;;0.52;99.15
49451;BME280;35336;48.400;10.886;2023-02-13T00:54:30;98145.88;;;0.55;99.15
49451;BME280;35336;48.400;10.886;2023-02-13T00:54:46;98159.50;;;0.61;99.42
49451;BME280;35336;48.400;10.886;2023-02-13T00:55:01;98167.38;;;0.61;99.27
49451;BME280;35336;48.400;10.886;2023-02-13T00:55:16;98141.66;;;0.52;99.41
49451;BME280;35336;48.400;10.886;2023-02-13T00:55:32;98168.88;;;0.66;99.31
49451;BME280;35336;48.400;10.886;2023-02-13T00:55:48;98151.13;;;0.55;99.06
49451;BME280;35336;48.400;10.886;2023-02-13T00:56:04;98166.25;;;0.66;99.26
49451;BME280;35336;48.400;10.886;2023-02-13T00:56:20;98170.47;;;0.68;99.23
49451;BME280;35336;48.400;10.886;2023-02-13T00:56:35;98158.47;;;0.64;99.29
49451;BME280;35336;48.400;10.886;2023-02-13T00:56:51;98162.81;;;0.65;99.05
49451;BME280;35336;48.400;10.886;2023-02-13T00:57:06;98141.47;;;0.55;99.06
49451;BME280;35336;48.400;10.886;2023-02-13T00:57:21;98169.56;;;0.69;99.42
49451;BME280;35336;48.400;10.886;2023-02-13T00:57:37;98156.69;;;0.65;99.31
49451;BME280;35336;48.400;10.886;2023-02-13T00:57:52;98163.47;;;0.69;99.01
49451;BME280;35336;48.400;10.886;2023-02-13T00:58:07;98141.28;;;0.58;99.08
49451;BME280;35336;48.400;10.886;2023-02-13T00:58:23;98157.63;;;0.63;99.04
49451;BME280;35336;48.400;10.886;2023-02-13T00:58:38;98146.53;;;0.58;99.15
49451;BME280;35336;48.400;10.886;2023-02-13T00:58:54;98166.16;;;0.67;99.02
49451;BME280;35336;48.400;10.886;2023-02-13T00:59:09;98146.53;;;0.58;99.08
49451;BME280;35336;48.400;10.886;2023-02-13T00:59:24;98159.25;;;0.66;98.92
49451;BME280;35336;48.400;10.886;2023-02-13T00:59:40;98156.69;;;0.65;99.29
49451;BME280;35336;48.400;10.886;2023-02-13T00:59:55;98155.50;;;0.70;99.09
49451;BME280;35336;48.400;10.886;2023-02-13T01:00:11;98158.03;;;0.72;99.25
49451;BME280;35336;48.400;10.886;2023-02-13T01:00:26;98143.50;;;0.66;99.08
49451;BME280;35336;48.400;10.886;2023-02-13T01:00:42;98151.84;;;0.73;99.31
49451;BME280;35336;48.400;10.886;2023-02-13T01:00:58;98150.34;;;0.69;99.16
49451;BME280;35336;48.400;10.886;2023-02-13T01:01:14;98150.50;;;0.66;99.06
49451;BME280;35336;48.400;10.886;2023-02-13T01:01:29;98146.13;;;0.66;98.65
49451;BME280;35336;48.400;10.886;2023-02-13T01:01:44;98159.91;;;0.70;98.73
49451;BME280;35336;48.400;10.886;2023-02-13T01:01:59;98159.91;;;0.70;98.84
49451;BME280;35336;48.400;10.886;2023-02-13T01:02:15;98143.91;;;0.58;98.77
49451;BME280;35336;48.400;10.886;2023-02-13T01:02:30;98166.94;;;0.69;98.94
49451;BME280;35336;48.400;10.886;2023-02-13T01:02:45;98154.81;;;0.67;98.85
49451;BME280;35336;48.400;10.886;2023-02-13T01:03:01;98166.81;;;0.71;98.88
49451;BME280;35336;48.400;10.886;2023-02-13T01:03:16;98158.03;;;0.72;99.02
49451;BME280;35336;48.400;10.886;2023-02-13T01:03:32;98146.94;;;0.67;98.89
49451;BME280;35336;48.400;10.886;2023-02-13T01:03:47;98156.06;;;0.75;99.16
49451;BME280;35336;48.400;10.886;2023-02-13T01:04:02;98157.84;;;0.75;99.00
49451;BME280;35336;48.400;10.886;2023-02-13T01:04:18;98141.88;;;0.63;99.17
49451;BME280;35336;48.400;10.886;2023-02-13T01:04:33;98140.09;;;0.64;99.10
49451;BME280;35336;48.400;10.886;2023-02-13T01:04:48;98167.44;;;0.76;99.07
49451;BME280;35336;48.400;10.886;2023-02-13T01:05:04;98142.63;;;0.66;98.75
49451;BME280;35336;48.400;10.886;2023-02-13T01:05:19;98128.94;;;0.60;99.20
49451;BME280;35336;48.400;10.886;2023-02-13T01:05:35;98165.38;;;0.81;99.24
49451;BME280;35336;48.400;10.886;2023-02-13T01:05:50;98165.25;;;0.83;98.98
49451;BME280;35336;48.400;10.886;2023-02-13T01:06:06;98159.94;;;0.84;98.93
49451;BME280;35336;48.400;10.886;2023-02-13T01:06:22;98160.88;;;0.83;98.82
49451;BME280;35336;48.400;10.886;2023-02-13T01:06:37;98145.81;;;0.71;98.78
49451;BME280;35336;48.400;10.886;2023-02-13T01:06:53;98160.88;;;0.83;98.65
49451;BME280;35336;48.400;10.886;2023-02-13T01:07:08;98149.97;;;0.75;98.59
49451;BME280;35336;48.400;10.886;2023-02-13T01:07:23;98162.75;;;0.81;98.58
49451;BME280;35336;48.400;10.886;2023-02-13T01:07:39;98151.66;;;0.76;98.37
49451;BME280;35336;48.400;10.886;2023-02-13T01:07:55;98158.41;;;0.80;98.33
49451;BME280;35336;48.400;10.886;2023-02-13T01:08:14;98160.00;;;0.83;98.35
49451;BME280;35336;48.400;10.886;2023-02-13T01:08:30;98148.38;;;0.72;98.54
49451;BME280;35336;48.400;10.886;2023-02-13T01:08:45;98146.50;;;0.74;98.54
49451;BME280;35336;48.400;10.886;2023-02-13T01:09:02;98160.88;;;0.83;98.53
49451;BME280;35336;48.400;10.886;2023-02-13T01:09:18;98157.31;;;0.84;98.49
49451;BME280;35336;48.400;10.886;2023-02-13T01:09:33;98148.38;;;0.72;98.48
49451;BME280;35336;48.400;10.886;2023-02-13T01:09:48;98156.72;;;0.79;98.03
49451;BME280;35336;48.400;10.886;2023-02-13T01:10:04;98153.94;;;0.82;98.38
49451;BME280;35336;48.400;10.886;2023-02-13T01:10:20;98144.81;;;0.73;98.02
49451;BME280;35336;48.400;10.886;2023-02-13T01:10:37;98134.00;;;0.63;98.36
49451;BME280;35336;48.400;10.886;2023-02-13T01:10:53;98145.75;;;0.72;98.27
49451;BME280;35336;48.400;10.886;2023-02-13T01:11:09;98162.56;;;0.84;98.56
49451;BME280;35336;48.400;10.886;2023-02-13T01:11:24;98149.13;;;0.74;98.41
49451;BME280;35336;48.400;10.886;2023-02-13T01:11:39;98165.25;;;0.83;98.61
49451;BME280;35336;48.400;10.886;2023-02-13T01:11:55;98124.53;;;0.61;98.12
49451;BME280;35336;48.400;10.886;2023-02-13T01:12:10;98168.75;;;0.83;98.38
49451;BME280;35336;48.400;10.886;2023-02-13T01:12:25;98162.63;;;0.83;98.16
49451;BME280;35336;48.400;10.886;2023-02-13T01:12:41;98159.19;;;0.82;98.22
49451;BME280;35336;48.400;10.886;2023-02-13T01:12:56;98160.00;;;0.83;98.45
49451;BME280;35336;48.400;10.886;2023-02-13T01:13:13;98142.47;;;0.69;98.34
49451;BME280;35336;48.400;10.886;2023-02-13T01:13:29;98163.50;;;0.83;98.69
49451;BME280;35336;48.400;10.886;2023-02-13T01:13:44;98162.56;;;0.84;98.43
49451;BME280;35336;48.400;10.886;2023-02-13T01:14:00;98158.97;;;0.85;98.60
49451;BME280;35336;48.400;10.886;2023-02-13T01:14:15;98154.97;;;0.79;98.57
49451;BME280;35336;48.400;10.886;2023-02-13T01:14:31;98150.75;;;0.77;98.38
49451;BME280;35336;48.400;10.886;2023-02-13T01:14:46;98117.66;;;0.58;98.25
49451;BME280;35336;48.400;10.886;2023-02-13T01:15:03;98153.94;;;0.82;98.37
49451;BME280;35336;48.400;10.886;2023-02-13T01:15:19;98145.75;;;0.72;98.15
49451;BME280;35336;48.400;10.886;2023-02-13T01:15:35;98160.13;;;0.81;98.50
49451;BME280;35336;48.400;10.886;2023-02-13T01:15:50;98154.09;;;0.79;98.32
49451;BME280;35336;48.400;10.886;2023-02-13T01:16:06;98161.81;;;0.82;98.53
49451;BME280;35336;48.400;10.886;2023-02-13T01:16:21;98157.66;;;0.78;98.56
49451;BME280;35336;48.400;10.886;2023-02-13T01:16:37;98156.66;;;0.81;98.25
49451;BME280;35336;48.400;10.886;2023-02-13T01:16:52;98159.34;;;0.79;98.45
49451;BME280;35336;48.400;10.886;2023-02-13T01:17:07;98151.56;;;0.77;98.20
49451;BME280;35336;48.400;10.886;2023-02-13T01:17:23;98152.41;;;0.78;98.48
49451;BME280;35336;48.400;10.886;2023-02-13T01:17:38;98115.41;;;0.52;98.16
49451;BME280;35336;48.400;10.886;2023-02-13T01:17:54;98137.38;;;0.66;98.43
49451;BME280;35336;48.400;10.886;2023-02-13T01:18:12;98158.78;;;0.74;97.88
49451;BME280;35336;48.400;10.886;2023-02-13T01:18:28;98163.00;;;0.76;98.00
49451;BME280;35336;48.400;10.886;2023-02-13T01:18:43;98162.91;;;0.78;98.19
49451;BME280;35336;48.400;10.886;2023-02-13T01:18:59;98158.63;;;0.77;98.12
49451;BME280;35336;48.400;10.886;2023-02-13T01:19:14;98133.25;;;0.61;97.87
49451;BME280;35336;48.400;10.886;2023-02-13T01:19:29;98132.50;;;0.59;97.83
49451;BME280;35336;48.400;10.886;2023-02-13T01:19:45;98135.78;;;0.63;98.17
49451;BME280;35336;48.400;10.886;2023-02-13T01:20:00;98152.19;;;0.67;98.27
49451;BME280;35336;48.400;10.886;2023-02-13T01:20:15;98159.56;;;0.76;98.24
49451;BME280;35336;48.400;10.886;2023-02-13T01:20:31;98154.47;;;0.73;98.37
49451;BME280;35336;48.400;10.886;2023-02-13T01:20:56;98120.81;;;0.49;98.02
49451;BME280;35336;48.400;10.886;2023-02-13T01:21:21;98141.88;;;0.63;98.23
49451;BME280;35336;48.400;10.886;2023-02-13T01:21:36;98117.94;;;0.54;98.42
49451;BME280;35336;48.400;10.886;2023-02-13T01:21:52;98136.81;;;0.60;98.18
49451;BME280;35336;48.400;10.886;2023-02-13T01:22:07;98159.72;;;0.73;97.92
49451;BME280;35336;48.400;10.886;2023-02-13T01:22:23;98161.41;;;0.74;97.98
49451;BME280;35336;48.400;10.886;2023-02-13T01:22:39;98156.16;;;0.74;97.99
49451;BME280;35336;48.400;10.886;2023-02-13T01:22:55;98163.94;;;0.75;98.07
49451;BME280;35336;48.400;10.886;2023-02-13T01:23:11;98161.41;;;0.74;98.21